createdAt,value
2023-04-19T00:02:24.000Z,65.78
2023-04-19T00:04:55.931Z,65.70
2023-04-19T00:07:25.781Z,65.82
2023-04-19T00:09:55.556Z,65.62
2023-04-19T00:12:27.990Z,64.38
2023-04-19T00:14:57.810Z,63.27
2023-04-19T00:17:28.060Z,62.02
2023-04-19T00:19:57.887Z,61.29
2023-04-19T00:22:27.719Z,61.53
2023-04-19T00:24:57.474Z,60.95
2023-04-19T00:27:29.838Z,58.64
2023-04-19T00:30:00.246Z,58.98
2023-04-19T00:32:30.058Z,58.34
2023-04-19T00:35:00.792Z,58.85
2023-04-19T00:37:30.734Z,58.11
2023-04-19T00:40:00.516Z,58.47
2023-04-19T00:42:32.918Z,58.19
2023-04-19T00:45:02.708Z,56.35
2023-04-19T00:47:33.585Z,56.28
2023-04-19T00:50:03.491Z,56.10
2023-04-19T00:52:33.520Z,55.85
2023-04-19T00:55:04.353Z,55.33
2023-04-19T00:57:36.770Z,54.05
2023-04-19T01:00:09.955Z,52.19
2023-04-19T01:02:39.929Z,51.04
2023-04-19T01:05:10.590Z,50.75
2023-04-19T01:07:42.873Z,50.50
2023-04-19T01:10:13.338Z,50.70
2023-04-19T01:12:47.173Z,50.98
2023-04-19T01:15:16.917Z,51.00
2023-04-19T01:17:46.904Z,51.63
2023-04-19T01:20:16.693Z,51.60
2023-04-19T01:22:49.044Z,51.50
2023-04-19T01:25:18.826Z,51.54
2023-04-19T01:27:48.711Z,51.92
2023-04-19T01:30:18.741Z,52.53
2023-04-19T01:32:48.601Z,52.00
2023-04-19T01:35:18.548Z,51.66
2023-04-19T01:37:50.970Z,51.87
2023-04-19T01:40:21.489Z,52.54
2023-04-19T01:42:51.253Z,52.54
2023-04-19T01:45:21.009Z,53.27
2023-04-19T01:47:54.193Z,53.32
2023-04-19T01:50:24.061Z,53.24
2023-04-19T01:52:56.446Z,53.53
2023-04-19T01:55:26.416Z,53.89
2023-04-19T01:57:56.241Z,55.07
2023-04-19T02:00:26.666Z,55.12
2023-04-19T02:02:56.596Z,55.10
2023-04-19T02:05:26.452Z,55.67
2023-04-19T02:08:01.503Z,56.13
2023-04-19T02:10:33.880Z,56.47
2023-04-19T02:13:03.669Z,57.00
2023-04-19T02:15:33.417Z,56.73
2023-04-19T02:18:06.700Z,57.58
2023-04-19T02:20:36.771Z,57.82
2023-04-19T02:23:09.544Z,58.44
2023-04-19T02:25:39.309Z,58.25
2023-04-19T02:28:09.927Z,58.86
2023-04-19T02:30:40.697Z,58.59
2023-04-19T02:33:10.545Z,58.82
2023-04-19T02:35:40.529Z,59.36
2023-04-19T02:38:12.912Z,59.79
2023-04-19T02:40:42.678Z,59.69
2023-04-19T02:43:12.450Z,60.15
2023-04-19T02:45:42.263Z,60.12
2023-04-19T02:48:12.094Z,60.19
2023-04-19T02:50:41.919Z,60.51
2023-04-19T02:53:14.429Z,60.69
2023-04-19T02:55:44.434Z,61.41
2023-04-19T02:58:19.196Z,61.30
2023-04-19T03:01:09.011Z,61.66
2023-04-19T03:03:38.909Z,61.59
2023-04-19T03:06:09.234Z,61.40
2023-04-19T03:08:42.459Z,62.18
2023-04-19T03:11:12.368Z,62.37
2023-04-19T03:13:42.551Z,62.67
2023-04-19T03:16:13.299Z,62.69
2023-04-19T03:18:45.290Z,62.94
2023-04-19T03:21:15.960Z,63.38
2023-04-19T03:23:54.583Z,63.41
2023-04-19T03:26:25.741Z,63.49
2023-04-19T03:28:57.356Z,63.96
2023-04-19T03:31:36.668Z,64.37
2023-04-19T03:34:07.112Z,64.66
2023-04-19T03:36:43.156Z,65.15
2023-04-19T03:39:15.660Z,65.23
2023-04-19T03:41:48.936Z,66.08
2023-04-19T03:44:28.716Z,66.08
2023-04-19T03:46:58.481Z,66.40
2023-04-19T03:49:32.089Z,66.26
2023-04-19T03:52:08.474Z,66.50
2023-04-19T03:54:40.907Z,67.20
2023-04-19T03:57:19.673Z,67.18
2023-04-19T03:59:50.553Z,67.43
2023-04-19T04:02:21.924Z,67.92
2023-04-19T04:04:56.925Z,67.35
2023-04-19T04:07:27.391Z,67.84
2023-04-19T04:09:59.794Z,68.16
2023-04-19T04:12:29.545Z,68.71
2023-04-19T04:15:01.114Z,68.83
2023-04-19T04:17:31.298Z,68.96
2023-04-19T04:20:01.454Z,69.14
2023-04-19T04:22:33.974Z,69.32
2023-04-19T04:25:06.796Z,69.92
2023-04-19T04:27:40.577Z,69.61
2023-04-19T04:30:15.626Z,69.97
2023-04-19T04:32:47.167Z,70.57
2023-04-19T04:35:17.891Z,70.21
2023-04-19T04:38:00.399Z,70.68
2023-04-19T04:40:32.888Z,70.90
2023-04-19T04:43:04.657Z,71.24
2023-04-19T04:45:36.080Z,71.04
2023-04-19T04:48:07.305Z,70.71
2023-04-19T04:50:37.139Z,70.69
2023-04-19T04:53:06.913Z,71.41
2023-04-19T04:55:39.569Z,71.68
2023-04-19T04:58:09.411Z,71.44
2023-04-19T05:00:52.628Z,71.93
2023-04-19T05:03:22.881Z,71.33
2023-04-19T05:05:57.908Z,71.63
2023-04-19T05:08:28.451Z,72.00
2023-04-19T05:11:06.432Z,72.03
2023-04-19T05:13:36.583Z,71.53
2023-04-19T05:16:07.354Z,71.80
2023-04-19T05:18:37.972Z,70.71
2023-04-19T05:21:10.610Z,70.30
2023-04-19T05:23:41.887Z,70.23
2023-04-19T05:26:15.660Z,70.02
2023-04-19T05:28:47.446Z,70.25
2023-04-19T05:31:25.026Z,70.66
2023-04-19T05:34:08.529Z,70.64
2023-04-19T05:36:38.292Z,70.72
2023-04-19T05:39:08.099Z,70.72
2023-04-19T05:41:40.758Z,70.88
2023-04-19T05:44:10.536Z,70.94
2023-04-19T05:46:40.621Z,70.86
2023-04-19T05:49:13.447Z,70.99
2023-04-19T05:52:02.285Z,70.93
2023-04-19T05:54:44.646Z,70.73
2023-04-19T05:57:17.079Z,70.63
2023-04-19T05:59:47.015Z,69.92
2023-04-19T06:02:20.437Z,69.41
2023-04-19T06:04:50.839Z,69.54
2023-04-19T06:07:31.090Z,69.38
2023-04-19T06:10:04.004Z,68.67
2023-04-19T06:12:36.423Z,68.53
2023-04-19T06:15:06.868Z,68.88
2023-04-19T06:17:37.138Z,68.53
2023-04-19T06:20:08.453Z,68.93
2023-04-19T06:22:38.416Z,68.82
2023-04-19T06:25:08.751Z,68.60
2023-04-19T06:27:41.105Z,68.07
2023-04-19T06:30:12.046Z,67.18
2023-04-19T06:32:42.644Z,67.12
2023-04-19T06:35:13.014Z,66.96
2023-04-19T06:37:42.788Z,67.41
2023-04-19T06:40:13.628Z,67.51
2023-04-19T06:42:45.994Z,66.63
2023-04-19T06:45:16.294Z,66.71
2023-04-19T06:47:46.260Z,67.39
2023-04-19T06:50:16.219Z,66.98
2023-04-19T06:52:46.013Z,66.06
2023-04-19T06:55:15.834Z,65.62
2023-04-19T06:57:48.176Z,64.66
2023-04-19T07:00:18.829Z,66.30
2023-04-19T07:02:48.711Z,65.34
2023-04-19T07:05:18.673Z,64.59
2023-04-19T07:07:48.421Z,65.32
2023-04-19T07:10:18.449Z,65.01
2023-04-19T07:12:50.812Z,64.66
2023-04-19T07:15:20.715Z,65.36
2023-04-19T07:17:50.455Z,64.77
2023-04-19T07:20:20.232Z,66.26
2023-04-19T07:22:50.062Z,65.01
2023-04-19T07:25:21.460Z,65.83
2023-04-19T07:27:55.635Z,65.82
2023-04-19T07:30:25.884Z,63.98
2023-04-19T07:32:55.844Z,63.43
2023-04-19T07:35:25.637Z,64.47
2023-04-19T07:37:55.414Z,64.04
2023-04-19T07:40:25.154Z,64.09
2023-04-19T07:42:58.428Z,63.38
2023-04-19T07:45:28.197Z,64.26
2023-04-19T07:47:58.540Z,63.41
2023-04-19T07:50:28.898Z,62.61
2023-04-19T07:52:58.728Z,62.44
2023-04-19T07:55:28.508Z,62.40
2023-04-19T07:58:00.881Z,62.58
2023-04-19T08:00:31.721Z,63.67
2023-04-19T08:03:01.658Z,62.92
2023-04-19T08:05:31.665Z,61.29
2023-04-19T08:08:01.589Z,62.02
2023-04-19T08:10:33.288Z,60.58
2023-04-19T08:13:06.730Z,61.91
2023-04-19T08:16:18.073Z,60.24
2023-04-19T08:18:27.189Z,59.07
2023-04-19T08:20:57.032Z,59.61
2023-04-19T08:23:34.633Z,60.34
2023-04-19T08:26:08.029Z,59.87
2023-04-19T08:28:40.418Z,59.49
2023-04-19T08:31:10.460Z,59.30
2023-04-19T08:33:40.294Z,58.88
2023-04-19T08:36:12.593Z,57.17
2023-04-19T08:38:46.615Z,56.20
2023-04-19T08:41:21.756Z,55.34
2023-04-19T08:43:55.265Z,55.14
2023-04-19T08:46:26.984Z,54.66
2023-04-19T08:48:57.745Z,55.60
2023-04-19T08:51:28.970Z,53.81
2023-04-19T08:53:59.679Z,54.02
2023-04-19T08:56:35.394Z,54.98
2023-04-19T08:59:18.070Z,52.77
2023-04-19T09:01:49.494Z,53.64
2023-04-19T09:04:34.505Z,54.97
2023-04-19T09:07:06.299Z,51.98
2023-04-19T09:09:42.908Z,52.05
2023-04-19T09:12:20.380Z,53.23
2023-04-19T09:17:25.501Z,51.67
2023-04-19T09:19:55.339Z,50.89
2023-04-19T09:22:25.187Z,49.10
2023-04-19T09:27:31.110Z,44.69
2023-04-19T09:30:10.822Z,45.88
2023-04-19T09:32:51.567Z,45.30
2023-04-19T09:35:21.415Z,45.37
2023-04-19T09:38:06.976Z,43.36
2023-04-19T09:40:37.409Z,44.38
2023-04-19T09:43:29.069Z,42.98
2023-04-19T09:45:59.786Z,43.24
2023-04-19T09:48:29.621Z,43.22
2023-04-19T09:51:04.995Z,43.90
2023-04-19T09:53:37.466Z,44.26
2023-04-19T09:56:07.985Z,43.03
2023-04-19T09:58:49.646Z,44.96
2023-04-19T10:01:23.968Z,43.75
2023-04-19T10:03:55.882Z,42.72
2023-04-19T10:06:45.678Z,42.94
2023-04-19T10:09:17.353Z,42.93
2023-04-19T10:11:54.450Z,43.59
2023-04-19T10:14:28.768Z,41.14
2023-04-19T10:17:01.244Z,42.64
2023-04-19T10:19:31.888Z,42.62
2023-04-19T10:22:05.464Z,42.19
2023-04-19T10:24:36.331Z,43.59
2023-04-19T10:27:12.491Z,42.34
2023-04-19T10:29:58.442Z,42.88
2023-04-19T10:32:33.555Z,42.14
2023-04-19T10:35:05.460Z,44.25
2023-04-19T10:37:35.479Z,41.38
2023-04-19T10:40:05.965Z,41.45
2023-04-19T10:43:20.603Z,41.18
2023-04-19T10:45:51.114Z,40.77
2023-04-19T10:48:44.305Z,42.13
2023-04-19T10:51:19.628Z,40.88
2023-04-19T10:53:54.391Z,40.96
2023-04-19T10:56:45.985Z,40.60
2023-04-19T10:59:24.952Z,39.78
2023-04-19T11:01:57.083Z,38.60
2023-04-19T11:05:04.528Z,38.84
2023-04-19T11:07:45.227Z,39.78
2023-04-19T11:10:15.162Z,40.04
2023-04-19T11:12:46.611Z,37.22
2023-04-19T11:15:16.441Z,38.27
2023-04-19T11:17:46.380Z,38.04
2023-04-19T11:20:18.870Z,38.89
2023-04-19T11:22:49.604Z,38.15
2023-04-19T11:25:21.168Z,39.92
2023-04-19T11:27:54.149Z,37.14
2023-04-19T11:30:26.145Z,37.24
2023-04-19T11:32:57.548Z,37.66
2023-04-19T11:35:31.618Z,37.38
2023-04-19T11:38:02.229Z,37.37
2023-04-19T11:40:32.292Z,37.76
2023-04-19T11:43:03.720Z,37.94
2023-04-19T11:45:39.261Z,36.46
2023-04-19T11:48:16.454Z,36.99
2023-04-19T11:50:50.207Z,36.81
2023-04-19T11:53:21.729Z,37.03
2023-04-19T11:55:54.020Z,36.99
2023-04-19T11:58:33.248Z,38.95
2023-04-19T12:01:07.126Z,37.78
2023-04-19T12:03:37.779Z,37.09
2023-04-19T12:06:15.325Z,37.88
2023-04-19T12:08:47.365Z,39.69
2023-04-19T12:11:19.009Z,38.00
2023-04-19T12:13:48.817Z,39.35
2023-04-19T12:16:30.082Z,37.43
2023-04-19T12:18:59.901Z,37.93
2023-04-19T12:21:34.477Z,40.91
2023-04-19T12:24:04.799Z,37.91
2023-04-19T12:26:34.792Z,37.97
2023-04-19T12:29:06.055Z,37.90
2023-04-19T12:31:36.148Z,37.75
2023-04-19T12:34:06.047Z,39.12
2023-04-19T12:36:38.452Z,37.76
2023-04-19T12:39:08.742Z,36.64
2023-04-19T12:41:38.510Z,37.54
2023-04-19T12:44:08.892Z,39.49
2023-04-19T12:46:39.527Z,36.37
2023-04-19T12:49:09.653Z,36.38
2023-04-19T12:51:42.816Z,36.60
2023-04-19T12:54:12.615Z,36.70
2023-04-19T12:56:42.396Z,39.06
2023-04-19T12:59:12.218Z,37.67
2023-04-19T13:01:42.013Z,36.32
2023-04-19T13:04:12.249Z,36.43
2023-04-19T13:06:46.079Z,39.91
2023-04-19T13:09:15.904Z,37.55
2023-04-19T13:11:45.681Z,37.94
2023-04-19T13:14:15.625Z,36.88
2023-04-19T13:16:45.739Z,37.73
2023-04-19T13:19:15.976Z,37.66
2023-04-19T13:21:48.458Z,37.79
2023-04-19T13:24:18.466Z,37.79
2023-04-19T13:26:48.909Z,37.60
2023-04-19T13:29:18.715Z,37.77
2023-04-19T13:31:49.649Z,38.62
2023-04-19T13:34:19.557Z,37.73
2023-04-19T13:36:51.923Z,37.46
2023-04-19T13:39:21.852Z,38.58
2023-04-19T13:41:51.782Z,38.90
2023-04-19T13:44:21.559Z,38.79
2023-04-19T13:46:51.367Z,38.71
2023-04-19T13:49:21.419Z,37.59
2023-04-19T13:51:53.784Z,38.89
2023-04-19T13:54:23.737Z,40.04
2023-04-19T13:56:53.483Z,38.75
2023-04-19T13:59:26.321Z,39.92
2023-04-19T14:01:56.967Z,38.68
2023-04-19T14:04:27.309Z,39.34
2023-04-19T14:06:59.735Z,37.93
2023-04-19T14:09:29.527Z,38.92
2023-04-19T14:11:59.299Z,38.42
2023-04-19T14:14:31.498Z,38.81
2023-04-19T14:17:02.123Z,40.55
2023-04-19T14:19:32.054Z,39.25
2023-04-19T14:22:04.468Z,40.22
2023-04-19T14:24:34.216Z,39.57
2023-04-19T14:27:10.922Z,39.40
2023-04-19T14:29:41.577Z,39.10
2023-04-19T14:32:25.052Z,39.32
2023-04-19T14:34:57.405Z,39.49
2023-04-19T14:37:29.815Z,39.69
2023-04-19T14:39:59.587Z,40.40
2023-04-19T14:42:29.321Z,40.44
2023-04-19T14:45:01.164Z,40.84
2023-04-19T14:47:31.055Z,40.46
2023-04-19T14:50:00.949Z,41.24
2023-04-19T14:52:33.342Z,40.51
2023-04-19T14:55:03.144Z,40.69
2023-04-19T14:57:33.046Z,40.10
2023-04-19T15:00:03.045Z,40.26
2023-04-19T15:02:34.163Z,42.11
2023-04-19T15:05:04.313Z,40.66
2023-04-19T15:07:36.817Z,41.25
2023-04-19T15:10:07.146Z,40.72
2023-04-19T15:12:36.968Z,42.50
2023-04-19T15:15:07.785Z,42.11
2023-04-19T15:17:37.981Z,42.21
2023-04-19T15:20:09.030Z,41.65
2023-04-19T15:22:41.498Z,42.04
2023-04-19T15:25:12.336Z,41.96
2023-04-19T15:27:42.513Z,42.09
2023-04-19T15:30:13.323Z,42.21
2023-04-19T15:32:44.636Z,42.10
2023-04-19T15:35:14.737Z,43.32
2023-04-19T15:37:48.346Z,43.13
2023-04-19T15:40:18.188Z,41.20
2023-04-19T15:42:48.085Z,42.36
2023-04-19T15:45:18.950Z,42.41
2023-04-19T15:47:48.760Z,40.53
2023-04-19T15:50:18.541Z,40.14
2023-04-19T15:52:50.874Z,41.49
2023-04-19T15:55:20.983Z,41.17
2023-04-19T15:57:50.746Z,41.66
2023-04-19T16:00:21.695Z,42.12
2023-04-19T16:02:51.914Z,42.28
2023-04-19T16:05:25.093Z,42.41
2023-04-19T16:08:07.761Z,42.87
2023-04-19T16:10:39.134Z,43.34
2023-04-19T16:13:09.401Z,42.05
2023-04-19T16:15:39.307Z,42.29
2023-04-19T16:18:09.204Z,41.65
2023-04-19T16:20:39.630Z,41.30
2023-04-19T16:23:12.212Z,42.02
2023-04-19T16:25:42.050Z,42.54
2023-04-19T16:28:11.866Z,42.82
2023-04-19T16:30:41.706Z,42.66
2023-04-19T16:33:11.558Z,42.28
2023-04-19T16:35:41.454Z,42.10
2023-04-19T16:38:14.093Z,42.04
2023-04-19T16:40:46.437Z,41.89
2023-04-19T16:43:16.310Z,43.06
2023-04-19T16:45:46.171Z,42.54
2023-04-19T16:48:16.222Z,42.74
2023-04-19T16:50:46.553Z,42.82
2023-04-19T16:53:18.883Z,43.14
2023-04-19T16:55:48.643Z,43.16
2023-04-19T16:58:18.448Z,41.92
2023-04-19T17:00:48.461Z,42.93
2023-04-19T17:03:18.858Z,43.83
2023-04-19T17:05:48.769Z,41.99
2023-04-19T17:08:22.373Z,41.95
2023-04-19T17:10:52.395Z,42.31
2023-04-19T17:13:22.222Z,42.49
2023-04-19T17:15:52.107Z,42.51
2023-04-19T17:18:22.357Z,43.03
2023-04-19T17:20:52.333Z,42.76
2023-04-19T17:23:24.773Z,43.17
2023-04-19T17:25:54.526Z,43.82
2023-04-19T17:28:24.394Z,43.86
2023-04-19T17:30:54.177Z,42.81
2023-04-19T17:33:23.971Z,42.20
2023-04-19T17:35:53.840Z,41.85
2023-04-19T17:38:26.322Z,42.38
2023-04-19T17:40:56.096Z,43.32
2023-04-19T17:43:26.396Z,43.04
2023-04-19T17:45:56.209Z,42.91
2023-04-19T17:48:26.101Z,42.50
2023-04-19T17:50:56.278Z,42.12
2023-04-19T17:53:28.781Z,43.03
2023-04-19T17:55:58.920Z,42.61
2023-04-19T17:58:28.825Z,41.94
2023-04-19T18:00:58.835Z,42.11
2023-04-19T18:03:28.734Z,41.79
2023-04-19T18:05:58.518Z,41.59
2023-04-19T18:08:30.872Z,41.19
2023-04-19T18:11:00.623Z,41.30
2023-04-19T18:13:31.448Z,41.94
2023-04-19T18:16:01.248Z,42.64
2023-04-19T18:18:31.114Z,42.61
2023-04-19T18:21:01.122Z,42.47
2023-04-19T18:23:33.617Z,42.64
2023-04-19T18:26:04.899Z,42.62
2023-04-19T18:28:35.833Z,41.60
2023-04-19T18:31:05.654Z,41.96
2023-04-19T18:33:35.533Z,41.90
2023-04-19T18:36:05.282Z,41.58
2023-04-19T18:38:37.903Z,42.05
2023-04-19T18:41:07.628Z,42.18
2023-04-19T18:43:37.409Z,42.37
2023-04-19T18:46:07.158Z,42.45
2023-04-19T18:48:36.965Z,42.62
2023-04-19T18:51:07.345Z,42.91
2023-04-19T18:53:40.026Z,43.41
2023-04-19T18:56:10.245Z,44.39
2023-04-19T18:58:40.090Z,44.71
2023-04-19T19:01:12.252Z,44.78
2023-04-19T19:06:16.124Z,44.37
2023-04-19T19:08:50.447Z,44.57
2023-04-19T19:11:46.957Z,43.60
2023-04-19T19:14:10.196Z,43.17
2023-04-19T19:16:50.888Z,43.48
2023-04-19T19:19:22.794Z,42.50
2023-04-19T19:21:52.908Z,43.05
2023-04-19T19:24:25.616Z,42.83
2023-04-19T19:26:55.635Z,42.53
2023-04-19T19:29:25.621Z,43.44
2023-04-19T19:31:55.877Z,43.29
2023-04-19T19:34:30.207Z,42.77
2023-04-19T19:37:00.489Z,42.60
2023-04-19T19:39:32.930Z,42.63
2023-04-19T19:42:06.447Z,43.26
2023-04-19T19:44:36.781Z,42.97
2023-04-19T19:47:10.256Z,42.44
2023-04-19T19:50:00.808Z,42.78
2023-04-19T19:52:32.155Z,43.14
2023-04-19T19:55:04.674Z,43.33
2023-04-19T20:02:55.028Z,43.60
2023-04-19T20:05:26.390Z,43.28
2023-04-19T20:08:08.489Z,43.40
2023-04-19T20:10:43.428Z,43.81
2023-04-19T20:13:13.398Z,44.35
2023-04-19T20:15:47.343Z,44.81
2023-04-19T20:18:17.185Z,45.16
2023-04-19T20:20:46.998Z,45.51
2023-04-19T20:23:18.168Z,45.69
2023-04-19T20:25:52.079Z,47.87
2023-04-19T20:28:21.918Z,48.61
2023-04-19T20:30:54.036Z,49.37
2023-04-19T20:33:23.831Z,49.81
2023-04-19T20:35:54.236Z,50.06
2023-04-19T20:38:24.555Z,50.42
2023-04-19T20:40:57.215Z,50.52
2023-04-19T20:43:27.129Z,50.23
2023-04-19T20:45:56.947Z,50.14
2023-04-19T20:48:26.848Z,50.47
2023-04-19T20:50:56.607Z,50.79
2023-04-19T20:53:26.439Z,50.86
2023-04-19T20:55:58.719Z,50.75
2023-04-19T20:58:28.613Z,51.05
2023-04-19T21:00:58.553Z,51.33
2023-04-19T21:03:28.552Z,51.04
2023-04-19T21:05:58.413Z,51.26
2023-04-19T21:08:28.167Z,50.42
2023-04-19T21:11:00.832Z,50.51
2023-04-19T21:13:30.642Z,50.01
2023-04-19T21:16:00.718Z,49.05
2023-04-19T21:18:31.135Z,48.35
2023-04-19T21:21:01.402Z,48.78
2023-04-19T21:23:31.258Z,48.27
2023-04-19T21:26:04.689Z,48.45
2023-04-19T21:28:36.868Z,49.38
2023-04-19T21:31:06.709Z,49.80
2023-04-19T21:33:36.565Z,48.00
2023-04-19T21:36:06.960Z,48.53
2023-04-19T21:38:37.214Z,48.71
2023-04-19T21:41:11.012Z,48.45
2023-04-19T21:43:40.840Z,48.81
2023-04-19T21:46:10.612Z,49.01
2023-04-19T21:48:40.697Z,49.40
2023-04-19T21:51:10.589Z,49.23
2023-04-19T21:53:40.316Z,48.49
2023-04-19T21:56:12.789Z,49.32
2023-04-19T21:58:42.621Z,48.95
2023-04-19T22:01:12.539Z,49.38
2023-04-19T22:03:42.971Z,49.22
2023-04-19T22:06:14.090Z,48.99
2023-04-19T22:08:44.346Z,48.55
2023-04-19T22:11:16.708Z,48.54
2023-04-19T22:13:47.215Z,48.99
2023-04-19T22:16:17.214Z,48.53
2023-04-19T22:18:46.986Z,48.58
2023-04-19T22:21:16.883Z,49.60
2023-04-19T22:23:46.656Z,49.94
2023-04-19T22:26:19.039Z,49.40
2023-04-19T22:28:48.785Z,50.25
2023-04-19T22:31:18.516Z,50.10
2023-04-19T22:33:48.396Z,50.71
2023-04-19T22:36:18.180Z,50.50
2023-04-19T22:38:48.031Z,51.05
2023-04-19T22:41:20.477Z,51.66
2023-04-19T22:43:50.234Z,51.74
2023-04-19T22:46:20.090Z,52.38
2023-04-19T22:48:50.741Z,52.29
2023-04-19T22:51:20.725Z,52.67
2023-04-19T22:53:50.732Z,53.06
2023-04-19T22:56:23.053Z,53.56
2023-04-19T22:58:52.836Z,53.89
2023-04-19T23:01:22.578Z,54.32
2023-04-19T23:03:52.423Z,54.36
2023-04-19T23:06:22.184Z,55.48
2023-04-19T23:08:51.899Z,56.16
2023-04-19T23:11:25.055Z,56.91
2023-04-19T23:13:55.698Z,57.91
2023-04-19T23:16:26.254Z,58.31
2023-04-19T23:18:56.941Z,58.70
2023-04-19T23:21:26.694Z,59.25
2023-04-19T23:23:56.440Z,60.35
2023-04-19T23:26:30.170Z,61.49
2023-04-19T23:28:59.951Z,61.85
2023-04-19T23:31:29.738Z,62.22
2023-04-19T23:33:59.490Z,62.53
2023-04-19T23:36:29.242Z,63.23
2023-04-19T23:38:59.000Z,63.52
2023-04-19T23:41:31.330Z,64.27
2023-04-19T23:44:01.201Z,64.61
2023-04-19T23:46:31.086Z,65.32
2023-04-19T23:49:00.871Z,65.29
2023-04-19T23:51:30.974Z,65.00
2023-04-19T23:54:00.781Z,65.73
2023-04-19T23:56:33.111Z,65.55
2023-04-19T23:59:02.828Z,66.20
